sensor_id;sensor_type;location;lat;lon;timestamp;P1;durP1;ratioP1;P2;durP2;ratioP2
65759;SDS011;52496;51.082;5.066;2023-03-23T00:00:04;8.55;;;3.67;;
65759;SDS011;52496;51.082;5.066;2023-03-23T00:02:37;6.85;;;3.75;;
65759;SDS011;52496;51.082;5.066;2023-03-23T00:05:08;7.28;;;3.20;;
65759;SDS011;52496;51.082;5.066;2023-03-23T00:07:39;7.28;;;3.80;;
65759;SDS011;52496;51.082;5.066;2023-03-23T00:10:15;7.10;;;3.78;;
65759;SDS011;52496;51.082;5.066;2023-03-23T00:12:46;5.75;;;3.50;;
65759;SDS011;52496;51.082;5.066;2023-03-23T00:15:19;5.93;;;3.40;;
65759;SDS011;52496;51.082;5.066;2023-03-23T00:17:54;7.57;;;3.40;;
65759;SDS011;52496;51.082;5.066;2023-03-23T00:20:32;7.38;;;3.33;;
65759;SDS011;52496;51.082;5.066;2023-03-23T00:23:10;6.05;;;3.17;;
65759;SDS011;52496;51.082;5.066;2023-03-23T00:25:41;5.53;;;3.45;;
65759;SDS011;52496;51.082;5.066;2023-03-23T00:28:11;8.30;;;3.20;;
65759;SDS011;52496;51.082;5.066;2023-03-23T00:30:42;8.88;;;3.83;;
65759;SDS011;52496;51.082;5.066;2023-03-23T00:33:14;8.00;;;3.63;;
65759;SDS011;52496;51.082;5.066;2023-03-23T00:35:46;5.40;;;2.92;;
65759;SDS011;52496;51.082;5.066;2023-03-23T00:38:17;6.95;;;3.45;;
65759;SDS011;52496;51.082;5.066;2023-03-23T00:40:48;9.45;;;3.60;;
65759;SDS011;52496;51.082;5.066;2023-03-23T00:43:19;7.18;;;3.58;;
65759;SDS011;52496;51.082;5.066;2023-03-23T00:45:50;9.73;;;3.80;;
65759;SDS011;52496;51.082;5.066;2023-03-23T00:48:24;7.00;;;3.88;;
65759;SDS011;52496;51.082;5.066;2023-03-23T00:50:55;6.65;;;3.60;;
65759;SDS011;52496;51.082;5.066;2023-03-23T00:53:25;8.18;;;3.40;;
65759;SDS011;52496;51.082;5.066;2023-03-23T00:55:56;5.75;;;3.53;;
65759;SDS011;52496;51.082;5.066;2023-03-23T00:58:26;6.97;;;3.67;;
65759;SDS011;52496;51.082;5.066;2023-03-23T01:00:57;5.30;;;3.42;;
65759;SDS011;52496;51.082;5.066;2023-03-23T01:03:27;8.10;;;5.00;;
65759;SDS011;52496;51.082;5.066;2023-03-23T01:06:09;6.88;;;3.38;;
65759;SDS011;52496;51.082;5.066;2023-03-23T01:08:42;6.40;;;4.05;;
65759;SDS011;52496;51.082;5.066;2023-03-23T01:11:15;6.82;;;3.72;;
65759;SDS011;52496;51.082;5.066;2023-03-23T01:13:46;6.85;;;3.50;;
65759;SDS011;52496;51.082;5.066;2023-03-23T01:16:16;6.35;;;3.60;;
65759;SDS011;52496;51.082;5.066;2023-03-23T01:18:47;6.45;;;4.05;;
65759;SDS011;52496;51.082;5.066;2023-03-23T01:21:18;7.10;;;3.40;;
65759;SDS011;52496;51.082;5.066;2023-03-23T01:23:50;6.20;;;3.53;;
65759;SDS011;52496;51.082;5.066;2023-03-23T01:26:21;6.93;;;4.10;;
65759;SDS011;52496;51.082;5.066;2023-03-23T01:28:54;7.97;;;4.55;;
65759;SDS011;52496;51.082;5.066;2023-03-23T01:31:25;6.70;;;3.40;;
65759;SDS011;52496;51.082;5.066;2023-03-23T01:33:56;6.57;;;3.88;;
65759;SDS011;52496;51.082;5.066;2023-03-23T01:36:27;6.05;;;3.47;;
65759;SDS011;52496;51.082;5.066;2023-03-23T01:39:03;9.02;;;3.83;;
65759;SDS011;52496;51.082;5.066;2023-03-23T01:41:35;8.52;;;3.80;;
65759;SDS011;52496;51.082;5.066;2023-03-23T01:44:07;6.40;;;3.65;;
65759;SDS011;52496;51.082;5.066;2023-03-23T01:46:56;8.18;;;3.85;;
65759;SDS011;52496;51.082;5.066;2023-03-23T01:49:27;6.50;;;4.00;;
65759;SDS011;52496;51.082;5.066;2023-03-23T01:52:03;11.82;;;4.07;;
65759;SDS011;52496;51.082;5.066;2023-03-23T01:54:38;8.05;;;3.80;;
65759;SDS011;52496;51.082;5.066;2023-03-23T01:57:14;5.85;;;3.78;;
65759;SDS011;52496;51.082;5.066;2023-03-23T01:59:47;10.45;;;3.85;;
65759;SDS011;52496;51.082;5.066;2023-03-23T02:02:22;7.05;;;4.20;;
65759;SDS011;52496;51.082;5.066;2023-03-23T02:04:55;5.50;;;3.58;;
65759;SDS011;52496;51.082;5.066;2023-03-23T02:07:29;6.95;;;3.80;;
65759;SDS011;52496;51.082;5.066;2023-03-23T02:10:01;6.43;;;3.90;;
65759;SDS011;52496;51.082;5.066;2023-03-23T02:12:32;12.55;;;5.15;;
65759;SDS011;52496;51.082;5.066;2023-03-23T02:15:03;6.25;;;4.40;;
65759;SDS011;52496;51.082;5.066;2023-03-23T02:35:03;6.78;;;3.47;;
65759;SDS011;52496;51.082;5.066;2023-03-23T02:37:44;6.32;;;3.70;;
65759;SDS011;52496;51.082;5.066;2023-03-23T02:40:20;6.68;;;3.63;;
65759;SDS011;52496;51.082;5.066;2023-03-23T02:42:55;7.10;;;3.90;;
65759;SDS011;52496;51.082;5.066;2023-03-23T02:45:28;7.57;;;3.45;;
65759;SDS011;52496;51.082;5.066;2023-03-23T02:48:01;6.57;;;3.50;;
65759;SDS011;52496;51.082;5.066;2023-03-23T02:50:34;8.90;;;3.75;;
65759;SDS011;52496;51.082;5.066;2023-03-23T02:53:08;7.60;;;3.63;;
65759;SDS011;52496;51.082;5.066;2023-03-23T02:55:41;6.75;;;3.47;;
65759;SDS011;52496;51.082;5.066;2023-03-23T02:58:13;6.03;;;3.42;;
65759;SDS011;52496;51.082;5.066;2023-03-23T03:00:44;6.70;;;3.22;;
65759;SDS011;52496;51.082;5.066;2023-03-23T03:03:19;8.68;;;3.40;;
65759;SDS011;52496;51.082;5.066;2023-03-23T03:11:15;6.15;;;3.03;;
65759;SDS011;52496;51.082;5.066;2023-03-23T03:16:43;4.95;;;2.88;;
65759;SDS011;52496;51.082;5.066;2023-03-23T03:19:22;6.43;;;2.90;;
65759;SDS011;52496;51.082;5.066;2023-03-23T03:21:58;6.22;;;2.72;;
65759;SDS011;52496;51.082;5.066;2023-03-23T03:24:29;7.88;;;2.90;;
65759;SDS011;52496;51.082;5.066;2023-03-23T03:27:01;6.60;;;3.10;;
65759;SDS011;52496;51.082;5.066;2023-03-23T03:29:37;7.07;;;3.00;;
65759;SDS011;52496;51.082;5.066;2023-03-23T03:32:12;4.93;;;2.40;;
65759;SDS011;52496;51.082;5.066;2023-03-23T03:34:45;5.68;;;2.72;;
65759;SDS011;52496;51.082;5.066;2023-03-23T03:37:17;5.65;;;2.70;;
65759;SDS011;52496;51.082;5.066;2023-03-23T03:39:48;5.75;;;3.13;;
65759;SDS011;52496;51.082;5.066;2023-03-23T03:42:20;6.45;;;2.80;;
65759;SDS011;52496;51.082;5.066;2023-03-23T03:44:51;5.40;;;3.10;;
65759;SDS011;52496;51.082;5.066;2023-03-23T03:47:21;4.40;;;2.50;;
65759;SDS011;52496;51.082;5.066;2023-03-23T03:49:52;7.45;;;2.85;;
65759;SDS011;52496;51.082;5.066;2023-03-23T03:52:22;12.32;;;3.20;;
65759;SDS011;52496;51.082;5.066;2023-03-23T03:54:53;7.15;;;3.15;;
65759;SDS011;52496;51.082;5.066;2023-03-23T03:57:24;6.65;;;2.75;;
65759;SDS011;52496;51.082;5.066;2023-03-23T03:59:54;5.28;;;2.60;;
65759;SDS011;52496;51.082;5.066;2023-03-23T04:02:26;7.60;;;2.90;;
65759;SDS011;52496;51.082;5.066;2023-03-23T04:04:56;5.10;;;2.67;;
65759;SDS011;52496;51.082;5.066;2023-03-23T04:07:26;7.25;;;2.95;;
65759;SDS011;52496;51.082;5.066;2023-03-23T04:09:59;4.70;;;2.60;;
65759;SDS011;52496;51.082;5.066;2023-03-23T04:12:29;4.93;;;2.45;;
65759;SDS011;52496;51.082;5.066;2023-03-23T04:15:00;7.20;;;3.15;;
65759;SDS011;52496;51.082;5.066;2023-03-23T04:17:30;5.05;;;2.25;;
65759;SDS011;52496;51.082;5.066;2023-03-23T04:20:01;4.97;;;2.33;;
65759;SDS011;52496;51.082;5.066;2023-03-23T04:22:38;6.22;;;2.47;;
65759;SDS011;52496;51.082;5.066;2023-03-23T04:25:09;6.63;;;2.83;;
65759;SDS011;52496;51.082;5.066;2023-03-23T04:27:41;4.30;;;2.20;;
65759;SDS011;52496;51.082;5.066;2023-03-23T04:30:16;6.85;;;2.47;;
65759;SDS011;52496;51.082;5.066;2023-03-23T04:32:46;7.70;;;2.70;;
65759;SDS011;52496;51.082;5.066;2023-03-23T04:35:21;5.57;;;2.70;;
65759;SDS011;52496;51.082;5.066;2023-03-23T04:37:56;4.72;;;2.70;;
65759;SDS011;52496;51.082;5.066;2023-03-23T04:40:27;5.05;;;2.58;;
65759;SDS011;52496;51.082;5.066;2023-03-23T04:42:57;7.35;;;3.78;;
65759;SDS011;52496;51.082;5.066;2023-03-23T04:45:35;5.68;;;2.58;;
65759;SDS011;52496;51.082;5.066;2023-03-23T04:48:07;6.20;;;2.90;;
65759;SDS011;52496;51.082;5.066;2023-03-23T04:50:38;5.95;;;2.83;;
65759;SDS011;52496;51.082;5.066;2023-03-23T04:53:08;5.80;;;2.70;;
65759;SDS011;52496;51.082;5.066;2023-03-23T04:55:39;10.88;;;3.42;;
65759;SDS011;52496;51.082;5.066;2023-03-23T04:58:11;4.97;;;2.47;;
65759;SDS011;52496;51.082;5.066;2023-03-23T05:00:44;6.28;;;2.97;;
65759;SDS011;52496;51.082;5.066;2023-03-23T05:03:19;6.88;;;2.63;;
65759;SDS011;52496;51.082;5.066;2023-03-23T05:05:50;6.00;;;2.45;;
65759;SDS011;52496;51.082;5.066;2023-03-23T05:08:22;7.63;;;2.83;;
65759;SDS011;52496;51.082;5.066;2023-03-23T05:10:57;3.88;;;2.17;;
65759;SDS011;52496;51.082;5.066;2023-03-23T05:13:28;5.38;;;2.30;;
65759;SDS011;52496;51.082;5.066;2023-03-23T05:16:02;9.77;;;4.47;;
65759;SDS011;52496;51.082;5.066;2023-03-23T05:18:35;8.13;;;2.75;;
65759;SDS011;52496;51.082;5.066;2023-03-23T05:21:06;6.50;;;3.08;;
65759;SDS011;52496;51.082;5.066;2023-03-23T05:23:36;8.00;;;2.55;;
65759;SDS011;52496;51.082;5.066;2023-03-23T05:26:07;5.70;;;2.55;;
65759;SDS011;52496;51.082;5.066;2023-03-23T05:28:37;4.97;;;2.40;;
65759;SDS011;52496;51.082;5.066;2023-03-23T05:31:08;9.85;;;2.75;;
65759;SDS011;52496;51.082;5.066;2023-03-23T05:33:39;9.50;;;2.40;;
65759;SDS011;52496;51.082;5.066;2023-03-23T05:36:09;5.43;;;2.50;;
65759;SDS011;52496;51.082;5.066;2023-03-23T05:38:43;5.80;;;2.28;;
65759;SDS011;52496;51.082;5.066;2023-03-23T05:41:17;6.97;;;2.40;;
65759;SDS011;52496;51.082;5.066;2023-03-23T05:43:48;5.30;;;2.28;;
65759;SDS011;52496;51.082;5.066;2023-03-23T05:46:18;12.60;;;2.40;;
65759;SDS011;52496;51.082;5.066;2023-03-23T05:48:49;7.80;;;2.28;;
65759;SDS011;52496;51.082;5.066;2023-03-23T05:51:19;6.10;;;2.28;;
65759;SDS011;52496;51.082;5.066;2023-03-23T05:53:50;6.97;;;2.15;;
65759;SDS011;52496;51.082;5.066;2023-03-23T05:56:20;6.55;;;2.40;;
65759;SDS011;52496;51.082;5.066;2023-03-23T05:58:51;6.75;;;2.30;;
65759;SDS011;52496;51.082;5.066;2023-03-23T06:01:23;5.78;;;2.03;;
65759;SDS011;52496;51.082;5.066;2023-03-23T06:03:55;3.80;;;1.90;;
65759;SDS011;52496;51.082;5.066;2023-03-23T06:06:28;5.97;;;1.90;;
65759;SDS011;52496;51.082;5.066;2023-03-23T06:09:01;3.67;;;1.67;;
65759;SDS011;52496;51.082;5.066;2023-03-23T06:11:33;6.38;;;2.88;;
65759;SDS011;52496;51.082;5.066;2023-03-23T06:14:04;9.27;;;2.58;;
65759;SDS011;52496;51.082;5.066;2023-03-23T06:16:34;4.72;;;1.90;;
65759;SDS011;52496;51.082;5.066;2023-03-23T06:19:05;5.60;;;2.00;;
65759;SDS011;52496;51.082;5.066;2023-03-23T06:21:35;10.20;;;2.25;;
65759;SDS011;52496;51.082;5.066;2023-03-23T06:24:06;6.18;;;1.80;;
65759;SDS011;52496;51.082;5.066;2023-03-23T06:26:38;5.68;;;1.92;;
65759;SDS011;52496;51.082;5.066;2023-03-23T06:29:10;2.30;;;1.50;;
65759;SDS011;52496;51.082;5.066;2023-03-23T06:31:43;5.45;;;1.95;;
65759;SDS011;52496;51.082;5.066;2023-03-23T06:34:15;4.07;;;2.08;;
65759;SDS011;52496;51.082;5.066;2023-03-23T06:36:46;6.63;;;2.42;;
65759;SDS011;52496;51.082;5.066;2023-03-23T06:39:17;4.95;;;2.05;;
65759;SDS011;52496;51.082;5.066;2023-03-23T06:41:48;5.68;;;2.10;;
65759;SDS011;52496;51.082;5.066;2023-03-23T06:44:19;6.20;;;2.20;;
65759;SDS011;52496;51.082;5.066;2023-03-23T06:46:49;4.63;;;2.10;;
65759;SDS011;52496;51.082;5.066;2023-03-23T06:49:20;3.75;;;1.90;;
65759;SDS011;52496;51.082;5.066;2023-03-23T06:51:51;6.45;;;2.00;;
65759;SDS011;52496;51.082;5.066;2023-03-23T06:54:22;4.93;;;2.30;;
65759;SDS011;52496;51.082;5.066;2023-03-23T06:56:52;6.80;;;2.38;;
65759;SDS011;52496;51.082;5.066;2023-03-23T06:59:23;5.70;;;2.20;;
65759;SDS011;52496;51.082;5.066;2023-03-23T07:01:54;5.43;;;2.20;;
65759;SDS011;52496;51.082;5.066;2023-03-23T07:04:24;6.32;;;2.67;;
65759;SDS011;52496;51.082;5.066;2023-03-23T07:06:55;7.22;;;2.20;;
65759;SDS011;52496;51.082;5.066;2023-03-23T07:09:26;6.38;;;2.08;;
65759;SDS011;52496;51.082;5.066;2023-03-23T07:11:57;6.22;;;2.15;;
65759;SDS011;52496;51.082;5.066;2023-03-23T07:14:28;6.88;;;2.33;;
65759;SDS011;52496;51.082;5.066;2023-03-23T07:17:02;5.38;;;1.90;;
65759;SDS011;52496;51.082;5.066;2023-03-23T07:19:34;5.35;;;2.00;;
65759;SDS011;52496;51.082;5.066;2023-03-23T07:22:06;6.55;;;2.10;;
65759;SDS011;52496;51.082;5.066;2023-03-23T07:24:37;11.57;;;2.50;;
65759;SDS011;52496;51.082;5.066;2023-03-23T07:27:07;5.82;;;2.10;;
65759;SDS011;52496;51.082;5.066;2023-03-23T07:29:38;8.38;;;2.65;;
65759;SDS011;52496;51.082;5.066;2023-03-23T07:32:10;6.72;;;2.60;;
65759;SDS011;52496;51.082;5.066;2023-03-23T07:34:41;3.00;;;1.70;;
65759;SDS011;52496;51.082;5.066;2023-03-23T07:37:12;5.00;;;1.30;;
65759;SDS011;52496;51.082;5.066;2023-03-23T07:39:43;1.35;;;0.88;;
65759;SDS011;52496;51.082;5.066;2023-03-23T07:42:13;1.85;;;0.98;;
65759;SDS011;52496;51.082;5.066;2023-03-23T07:44:44;1.35;;;1.15;;
65759;SDS011;52496;51.082;5.066;2023-03-23T07:47:14;2.50;;;0.90;;
65759;SDS011;52496;51.082;5.066;2023-03-23T07:49:45;1.25;;;0.88;;
65759;SDS011;52496;51.082;5.066;2023-03-23T07:52:16;2.95;;;1.42;;
65759;SDS011;52496;51.082;5.066;2023-03-23T07:54:47;2.38;;;1.02;;
65759;SDS011;52496;51.082;5.066;2023-03-23T07:57:18;1.70;;;1.13;;
65759;SDS011;52496;51.082;5.066;2023-03-23T07:59:48;1.75;;;0.75;;
65759;SDS011;52496;51.082;5.066;2023-03-23T08:02:19;2.58;;;1.08;;
65759;SDS011;52496;51.082;5.066;2023-03-23T08:04:49;1.75;;;1.00;;
65759;SDS011;52496;51.082;5.066;2023-03-23T08:07:21;3.30;;;1.13;;
65759;SDS011;52496;51.082;5.066;2023-03-23T08:09:52;1.30;;;0.95;;
65759;SDS011;52496;51.082;5.066;2023-03-23T08:12:22;1.95;;;0.77;;
65759;SDS011;52496;51.082;5.066;2023-03-23T08:14:53;2.55;;;1.08;;
65759;SDS011;52496;51.082;5.066;2023-03-23T08:17:23;3.67;;;1.23;;
65759;SDS011;52496;51.082;5.066;2023-03-23T08:19:54;1.98;;;1.20;;
65759;SDS011;52496;51.082;5.066;2023-03-23T08:22:25;1.98;;;1.25;;
65759;SDS011;52496;51.082;5.066;2023-03-23T08:24:56;3.38;;;1.25;;
65759;SDS011;52496;51.082;5.066;2023-03-23T08:27:26;4.05;;;1.42;;
65759;SDS011;52496;51.082;5.066;2023-03-23T08:29:57;3.90;;;1.27;;
65759;SDS011;52496;51.082;5.066;2023-03-23T08:32:28;3.13;;;1.33;;
65759;SDS011;52496;51.082;5.066;2023-03-23T08:34:59;2.13;;;1.15;;
65759;SDS011;52496;51.082;5.066;2023-03-23T08:37:30;3.58;;;1.38;;
65759;SDS011;52496;51.082;5.066;2023-03-23T08:40:00;4.10;;;1.48;;
65759;SDS011;52496;51.082;5.066;2023-03-23T08:42:37;5.15;;;1.45;;
65759;SDS011;52496;51.082;5.066;2023-03-23T08:45:09;3.97;;;1.50;;
65759;SDS011;52496;51.082;5.066;2023-03-23T08:47:41;3.08;;;1.55;;
65759;SDS011;52496;51.082;5.066;2023-03-23T08:50:14;3.33;;;1.73;;
65759;SDS011;52496;51.082;5.066;2023-03-23T08:52:46;4.03;;;1.33;;
65759;SDS011;52496;51.082;5.066;2023-03-23T08:55:17;6.50;;;1.92;;
65759;SDS011;52496;51.082;5.066;2023-03-23T08:57:47;3.03;;;1.52;;
65759;SDS011;52496;51.082;5.066;2023-03-23T09:00:19;4.88;;;1.70;;
65759;SDS011;52496;51.082;5.066;2023-03-23T09:02:52;4.65;;;1.63;;
65759;SDS011;52496;51.082;5.066;2023-03-23T09:05:24;4.22;;;1.55;;
65759;SDS011;52496;51.082;5.066;2023-03-23T09:07:57;7.82;;;1.80;;
65759;SDS011;52496;51.082;5.066;2023-03-23T09:10:31;5.40;;;2.00;;
65759;SDS011;52496;51.082;5.066;2023-03-23T09:13:01;6.65;;;2.53;;
65759;SDS011;52496;51.082;5.066;2023-03-23T09:15:32;4.03;;;1.95;;
65759;SDS011;52496;51.082;5.066;2023-03-23T09:18:03;3.60;;;1.55;;
65759;SDS011;52496;51.082;5.066;2023-03-23T09:20:34;5.78;;;2.05;;
65759;SDS011;52496;51.082;5.066;2023-03-23T09:23:07;4.45;;;1.98;;
65759;SDS011;52496;51.082;5.066;2023-03-23T09:25:38;5.38;;;2.30;;
65759;SDS011;52496;51.082;5.066;2023-03-23T09:28:09;5.32;;;2.13;;
65759;SDS011;52496;51.082;5.066;2023-03-23T09:30:40;3.03;;;2.03;;
65759;SDS011;52496;51.082;5.066;2023-03-23T09:33:11;5.53;;;2.47;;
65759;SDS011;52496;51.082;5.066;2023-03-23T09:35:41;5.45;;;1.67;;
65759;SDS011;52496;51.082;5.066;2023-03-23T09:38:12;3.58;;;1.75;;
65759;SDS011;52496;51.082;5.066;2023-03-23T09:40:53;7.70;;;2.00;;
65759;SDS011;52496;51.082;5.066;2023-03-23T09:52:14;3.60;;;1.67;;
65759;SDS011;52496;51.082;5.066;2023-03-23T09:54:47;5.80;;;1.95;;
65759;SDS011;52496;51.082;5.066;2023-03-23T10:00:18;4.43;;;1.90;;
65759;SDS011;52496;51.082;5.066;2023-03-23T10:05:42;3.70;;;1.80;;
65759;SDS011;52496;51.082;5.066;2023-03-23T10:08:20;8.15;;;1.85;;
65759;SDS011;52496;51.082;5.066;2023-03-23T10:16:25;6.13;;;1.92;;
65759;SDS011;52496;51.082;5.066;2023-03-23T10:19:02;4.45;;;1.55;;
65759;SDS011;52496;51.082;5.066;2023-03-23T10:22:11;3.00;;;1.52;;
65759;SDS011;52496;51.082;5.066;2023-03-23T10:24:57;6.50;;;2.10;;
65759;SDS011;52496;51.082;5.066;2023-03-23T10:27:42;4.40;;;1.75;;
65759;SDS011;52496;51.082;5.066;2023-03-23T10:30:22;4.72;;;1.80;;
65759;SDS011;52496;51.082;5.066;2023-03-23T10:35:56;3.60;;;1.70;;
65759;SDS011;52496;51.082;5.066;2023-03-23T10:38:36;3.13;;;1.63;;
65759;SDS011;52496;51.082;5.066;2023-03-23T10:41:17;3.30;;;1.52;;
65759;SDS011;52496;51.082;5.066;2023-03-23T10:43:48;2.20;;;1.40;;
65759;SDS011;52496;51.082;5.066;2023-03-23T10:46:22;3.90;;;1.95;;
65759;SDS011;52496;51.082;5.066;2023-03-23T10:48:55;3.67;;;1.70;;
65759;SDS011;52496;51.082;5.066;2023-03-23T10:51:32;1.90;;;1.20;;
65759;SDS011;52496;51.082;5.066;2023-03-23T10:54:06;3.92;;;1.98;;
65759;SDS011;52496;51.082;5.066;2023-03-23T10:56:39;5.20;;;1.88;;
65759;SDS011;52496;51.082;5.066;2023-03-23T10:59:18;4.10;;;1.80;;
65759;SDS011;52496;51.082;5.066;2023-03-23T11:01:52;4.60;;;1.80;;
65759;SDS011;52496;51.082;5.066;2023-03-23T11:04:25;4.15;;;1.90;;
65759;SDS011;52496;51.082;5.066;2023-03-23T11:07:00;3.63;;;1.92;;
65759;SDS011;52496;51.082;5.066;2023-03-23T11:09:37;4.45;;;1.83;;
65759;SDS011;52496;51.082;5.066;2023-03-23T11:12:16;5.10;;;2.00;;
65759;SDS011;52496;51.082;5.066;2023-03-23T11:14:48;4.60;;;1.88;;
65759;SDS011;52496;51.082;5.066;2023-03-23T11:17:21;3.33;;;2.00;;
65759;SDS011;52496;51.082;5.066;2023-03-23T11:19:54;6.72;;;3.25;;
65759;SDS011;52496;51.082;5.066;2023-03-23T11:22:26;6.28;;;2.42;;
65759;SDS011;52496;51.082;5.066;2023-03-23T11:25:03;5.80;;;2.20;;
65759;SDS011;52496;51.082;5.066;2023-03-23T11:27:35;4.57;;;2.00;;
65759;SDS011;52496;51.082;5.066;2023-03-23T11:30:11;3.90;;;1.75;;
65759;SDS011;52496;51.082;5.066;2023-03-23T11:32:54;5.18;;;2.15;;
65759;SDS011;52496;51.082;5.066;2023-03-23T11:35:30;5.25;;;2.15;;
65759;SDS011;52496;51.082;5.066;2023-03-23T11:38:01;7.22;;;2.00;;
65759;SDS011;52496;51.082;5.066;2023-03-23T11:40:33;5.97;;;2.10;;
65759;SDS011;52496;51.082;5.066;2023-03-23T11:43:19;4.80;;;2.28;;
65759;SDS011;52496;51.082;5.066;2023-03-23T11:46:04;6.68;;;2.38;;
65759;SDS011;52496;51.082;5.066;2023-03-23T11:49:00;7.18;;;2.75;;
65759;SDS011;52496;51.082;5.066;2023-03-23T11:54:42;5.07;;;2.00;;
65759;SDS011;52496;51.082;5.066;2023-03-23T11:57:17;6.15;;;2.70;;
65759;SDS011;52496;51.082;5.066;2023-03-23T11:59:48;3.88;;;1.90;;
65759;SDS011;52496;51.082;5.066;2023-03-23T12:17:16;9.25;;;2.50;;
65759;SDS011;52496;51.082;5.066;2023-03-23T12:23:19;8.73;;;3.10;;
65759;SDS011;52496;51.082;5.066;2023-03-23T12:31:36;10.82;;;4.47;;
65759;SDS011;52496;51.082;5.066;2023-03-23T12:42:55;5.63;;;2.95;;
65759;SDS011;52496;51.082;5.066;2023-03-23T12:48:32;5.32;;;2.47;;
65759;SDS011;52496;51.082;5.066;2023-03-23T12:54:42;9.63;;;2.58;;
65759;SDS011;52496;51.082;5.066;2023-03-23T12:57:18;5.70;;;2.33;;
65759;SDS011;52496;51.082;5.066;2023-03-23T13:00:12;6.95;;;2.67;;
65759;SDS011;52496;51.082;5.066;2023-03-23T13:02:46;5.45;;;2.38;;
65759;SDS011;52496;51.082;5.066;2023-03-23T13:05:29;6.68;;;2.30;;
65759;SDS011;52496;51.082;5.066;2023-03-23T13:08:12;6.45;;;2.45;;
65759;SDS011;52496;51.082;5.066;2023-03-23T13:10:50;7.25;;;2.08;;
65759;SDS011;52496;51.082;5.066;2023-03-23T13:13:24;5.22;;;2.17;;
65759;SDS011;52496;51.082;5.066;2023-03-23T13:16:01;4.28;;;1.80;;
65759;SDS011;52496;51.082;5.066;2023-03-23T13:18:51;6.03;;;2.30;;
65759;SDS011;52496;51.082;5.066;2023-03-23T13:21:37;9.45;;;2.20;;
65759;SDS011;52496;51.082;5.066;2023-03-23T13:24:23;8.30;;;2.55;;
65759;SDS011;52496;51.082;5.066;2023-03-23T13:27:01;5.88;;;1.77;;
65759;SDS011;52496;51.082;5.066;2023-03-23T13:29:33;6.22;;;2.15;;
65759;SDS011;52496;51.082;5.066;2023-03-23T13:32:11;5.40;;;2.15;;
65759;SDS011;52496;51.082;5.066;2023-03-23T13:34:46;5.40;;;2.35;;
65759;SDS011;52496;51.082;5.066;2023-03-23T13:37:20;6.40;;;2.20;;
65759;SDS011;52496;51.082;5.066;2023-03-23T13:42:56;6.70;;;2.45;;
65759;SDS011;52496;51.082;5.066;2023-03-23T13:48:03;5.10;;;2.30;;
65759;SDS011;52496;51.082;5.066;2023-03-23T13:50:58;7.85;;;2.83;;
65759;SDS011;52496;51.082;5.066;2023-03-23T13:53:35;10.75;;;2.50;;
65759;SDS011;52496;51.082;5.066;2023-03-23T13:56:35;6.90;;;2.58;;
65759;SDS011;52496;51.082;5.066;2023-03-23T13:59:27;7.38;;;2.40;;
65759;SDS011;52496;51.082;5.066;2023-03-23T14:02:31;6.47;;;2.15;;
65759;SDS011;52496;51.082;5.066;2023-03-23T14:07:56;6.85;;;2.65;;
65759;SDS011;52496;51.082;5.066;2023-03-23T14:10:32;7.15;;;2.65;;
65759;SDS011;52496;51.082;5.066;2023-03-23T14:13:06;6.18;;;2.63;;
65759;SDS011;52496;51.082;5.066;2023-03-23T14:16:00;4.90;;;2.60;;
65759;SDS011;52496;51.082;5.066;2023-03-23T14:18:37;12.02;;;3.17;;
65759;SDS011;52496;51.082;5.066;2023-03-23T14:21:16;7.22;;;2.85;;
65759;SDS011;52496;51.082;5.066;2023-03-23T14:23:51;7.60;;;2.50;;
65759;SDS011;52496;51.082;5.066;2023-03-23T14:26:24;9.70;;;3.45;;
65759;SDS011;52496;51.082;5.066;2023-03-23T14:28:55;6.45;;;2.60;;
65759;SDS011;52496;51.082;5.066;2023-03-23T14:31:26;6.30;;;2.30;;
65759;SDS011;52496;51.082;5.066;2023-03-23T14:34:01;8.30;;;3.05;;
65759;SDS011;52496;51.082;5.066;2023-03-23T14:36:34;5.68;;;2.75;;
65759;SDS011;52496;51.082;5.066;2023-03-23T14:39:26;8.18;;;2.78;;
65759;SDS011;52496;51.082;5.066;2023-03-23T14:42:07;5.25;;;2.25;;
65759;SDS011;52496;51.082;5.066;2023-03-23T14:44:46;6.75;;;2.10;;
65759;SDS011;52496;51.082;5.066;2023-03-23T14:47:21;8.60;;;3.15;;
65759;SDS011;52496;51.082;5.066;2023-03-23T14:49:56;8.20;;;3.00;;
65759;SDS011;52496;51.082;5.066;2023-03-23T14:52:36;11.13;;;2.53;;
65759;SDS011;52496;51.082;5.066;2023-03-23T14:55:14;6.20;;;2.80;;
65759;SDS011;52496;51.082;5.066;2023-03-23T14:57:48;7.50;;;3.08;;
65759;SDS011;52496;51.082;5.066;2023-03-23T15:00:25;8.65;;;3.17;;
65759;SDS011;52496;51.082;5.066;2023-03-23T15:03:01;8.70;;;2.35;;
65759;SDS011;52496;51.082;5.066;2023-03-23T15:05:36;5.10;;;2.20;;
65759;SDS011;52496;51.082;5.066;2023-03-23T15:08:15;7.68;;;2.50;;
65759;SDS011;52496;51.082;5.066;2023-03-23T15:10:59;8.07;;;2.60;;
65759;SDS011;52496;51.082;5.066;2023-03-23T15:13:33;9.70;;;2.63;;
65759;SDS011;52496;51.082;5.066;2023-03-23T15:16:10;8.80;;;2.47;;
65759;SDS011;52496;51.082;5.066;2023-03-23T15:18:55;4.65;;;2.17;;
65759;SDS011;52496;51.082;5.066;2023-03-23T15:21:32;8.65;;;2.45;;
65759;SDS011;52496;51.082;5.066;2023-03-23T15:24:18;6.20;;;2.50;;
65759;SDS011;52496;51.082;5.066;2023-03-23T15:26:51;7.05;;;2.28;;
65759;SDS011;52496;51.082;5.066;2023-03-23T15:29:22;7.20;;;2.17;;
65759;SDS011;52496;51.082;5.066;2023-03-23T15:31:54;12.48;;;3.00;;
65759;SDS011;52496;51.082;5.066;2023-03-23T15:34:32;6.72;;;2.30;;
65759;SDS011;52496;51.082;5.066;2023-03-23T15:37:19;7.18;;;2.78;;
65759;SDS011;52496;51.082;5.066;2023-03-23T15:40:04;8.38;;;3.15;;
65759;SDS011;52496;51.082;5.066;2023-03-23T15:42:36;9.90;;;3.85;;
65759;SDS011;52496;51.082;5.066;2023-03-23T15:50:17;10.77;;;3.33;;
65759;SDS011;52496;51.082;5.066;2023-03-23T15:52:54;13.00;;;3.13;;
65759;SDS011;52496;51.082;5.066;2023-03-23T15:57:57;10.38;;;3.40;;
65759;SDS011;52496;51.082;5.066;2023-03-23T16:00:27;9.50;;;3.25;;
65759;SDS011;52496;51.082;5.066;2023-03-23T16:02:59;6.50;;;2.95;;
65759;SDS011;52496;51.082;5.066;2023-03-23T16:05:35;9.13;;;3.35;;
65759;SDS011;52496;51.082;5.066;2023-03-23T16:08:07;7.55;;;2.83;;
65759;SDS011;52496;51.082;5.066;2023-03-23T16:10:40;8.77;;;3.30;;
65759;SDS011;52496;51.082;5.066;2023-03-23T16:13:11;10.55;;;3.05;;
65759;SDS011;52496;51.082;5.066;2023-03-23T16:15:41;9.45;;;4.03;;
65759;SDS011;52496;51.082;5.066;2023-03-23T16:18:19;8.40;;;2.63;;
65759;SDS011;52496;51.082;5.066;2023-03-23T16:20:51;8.45;;;2.83;;
65759;SDS011;52496;51.082;5.066;2023-03-23T16:23:21;5.90;;;2.63;;
65759;SDS011;52496;51.082;5.066;2023-03-23T16:25:52;10.15;;;2.72;;
65759;SDS011;52496;51.082;5.066;2023-03-23T16:28:23;5.00;;;2.70;;
65759;SDS011;52496;51.082;5.066;2023-03-23T16:30:53;7.20;;;2.65;;
65759;SDS011;52496;51.082;5.066;2023-03-23T16:33:24;10.25;;;2.90;;
65759;SDS011;52496;51.082;5.066;2023-03-23T16:35:55;9.30;;;2.53;;
65759;SDS011;52496;51.082;5.066;2023-03-23T16:38:27;7.65;;;2.67;;
65759;SDS011;52496;51.082;5.066;2023-03-23T16:40:58;7.20;;;2.70;;
65759;SDS011;52496;51.082;5.066;2023-03-23T16:43:28;6.80;;;2.90;;
65759;SDS011;52496;51.082;5.066;2023-03-23T16:45:59;9.32;;;3.00;;
65759;SDS011;52496;51.082;5.066;2023-03-23T16:48:30;8.40;;;3.03;;
65759;SDS011;52496;51.082;5.066;2023-03-23T16:51:00;10.18;;;2.90;;
65759;SDS011;52496;51.082;5.066;2023-03-23T16:53:31;11.00;;;3.13;;
65759;SDS011;52496;51.082;5.066;2023-03-23T16:56:02;9.27;;;2.55;;
65759;SDS011;52496;51.082;5.066;2023-03-23T16:58:33;8.68;;;2.88;;
65759;SDS011;52496;51.082;5.066;2023-03-23T17:01:05;7.90;;;3.30;;
65759;SDS011;52496;51.082;5.066;2023-03-23T17:03:37;9.27;;;2.60;;
65759;SDS011;52496;51.082;5.066;2023-03-23T17:06:09;6.57;;;2.67;;
65759;SDS011;52496;51.082;5.066;2023-03-23T17:08:39;16.40;;;3.08;;
65759;SDS011;52496;51.082;5.066;2023-03-23T17:11:10;11.82;;;3.03;;
65759;SDS011;52496;51.082;5.066;2023-03-23T17:13:40;11.07;;;3.00;;